sensor_id;sensor_type;location;lat;lon;timestamp;pressure;altitude;pressure_sealevel;temperature;humidity
47670;BME280;33408;52.062;11.722;2024-01-25T00:00:26;101530.22;;;7.80;100.00
47670;BME280;33408;52.062;11.722;2024-01-25T00:02:52;101536.25;;;7.83;100.00
47670;BME280;33408;52.062;11.722;2024-01-25T00:05:20;101520.75;;;7.85;100.00
47670;BME280;33408;52.062;11.722;2024-01-25T00:07:47;101537.97;;;7.83;100.00
47670;BME280;33408;52.062;11.722;2024-01-25T00:10:16;101548.34;;;7.89;100.00
47670;BME280;33408;52.062;11.722;2024-01-25T00:12:43;101546.59;;;7.87;100.00
47670;BME280;33408;52.062;11.722;2024-01-25T00:15:10;101534.50;;;7.84;100.00
47670;BME280;33408;52.062;11.722;2024-01-25T00:17:37;101553.50;;;7.88;100.00
47670;BME280;33408;52.062;11.722;2024-01-25T00:20:04;101540.59;;;7.88;100.00
47670;BME280;33408;52.062;11.722;2024-01-25T00:22:32;101555.19;;;7.89;100.00
47670;BME280;33408;52.062;11.722;2024-01-25T00:24:59;101554.38;;;7.94;100.00
47670;BME280;33408;52.062;11.722;2024-01-25T00:27:26;101544.84;;;7.81;100.00
47670;BME280;33408;52.062;11.722;2024-01-25T00:29:52;101534.53;;;7.87;100.00
47670;BME280;33408;52.062;11.722;2024-01-25T00:32:19;101542.25;;;7.78;100.00
47670;BME280;33408;52.062;11.722;2024-01-25T00:34:46;101538.78;;;7.77;100.00
47670;BME280;33408;52.062;11.722;2024-01-25T00:37:13;101554.28;;;7.82;100.00
47670;BME280;33408;52.062;11.722;2024-01-25T00:39:41;101551.75;;;7.85;100.00
47670;BME280;33408;52.062;11.722;2024-01-25T00:42:12;101560.31;;;7.84;100.00
47670;BME280;33408;52.062;11.722;2024-01-25T00:44:39;101549.97;;;7.76;100.00
47670;BME280;33408;52.062;11.722;2024-01-25T00:47:06;101550.03;;;7.82;100.00
47670;BME280;33408;52.062;11.722;2024-01-25T00:49:34;101519.88;;;7.81;100.00
47670;BME280;33408;52.062;11.722;2024-01-25T00:52:03;101518.16;;;7.80;100.00
47670;BME280;33408;52.062;11.722;2024-01-25T00:54:30;101513.88;;;7.81;100.00
47670;BME280;33408;52.062;11.722;2024-01-25T00:56:59;101542.22;;;7.73;100.00
47670;BME280;33408;52.062;11.722;2024-01-25T00:59:26;101542.28;;;7.87;100.00
47670;BME280;33408;52.062;11.722;2024-01-25T01:01:53;101528.50;;;7.87;100.00
47670;BME280;33408;52.062;11.722;2024-01-25T01:04:22;101543.16;;;7.88;100.00
47670;BME280;33408;52.062;11.722;2024-01-25T01:06:49;101528.53;;;7.88;100.00
47670;BME280;33408;52.062;11.722;2024-01-25T01:09:16;101533.63;;;7.80;100.00
47670;BME280;33408;52.062;11.722;2024-01-25T01:11:43;101525.03;;;7.77;100.00
47670;BME280;33408;52.062;11.722;2024-01-25T01:14:11;101522.44;;;7.77;100.00
47670;BME280;33408;52.062;11.722;2024-01-25T01:16:37;101526.78;;;7.81;100.00
47670;BME280;33408;52.062;11.722;2024-01-25T01:19:04;101539.66;;;7.78;100.00
47670;BME280;33408;52.062;11.722;2024-01-25T01:21:32;101529.38;;;7.87;100.00
47670;BME280;33408;52.062;11.722;2024-01-25T01:23:59;101548.22;;;7.71;100.00
47670;BME280;33408;52.062;11.722;2024-01-25T01:26:26;101543.94;;;7.71;100.00
47670;BME280;33408;52.062;11.722;2024-01-25T01:28:52;101543.94;;;7.71;100.00
47670;BME280;33408;52.062;11.722;2024-01-25T01:31:20;101543.09;;;7.77;100.00
47670;BME280;33408;52.062;11.722;2024-01-25T01:33:47;101555.09;;;7.69;100.00
47670;BME280;33408;52.062;11.722;2024-01-25T01:36:13;101543.91;;;7.74;100.00
47670;BME280;33408;52.062;11.722;2024-01-25T01:38:40;101543.88;;;7.65;100.00
47670;BME280;33408;52.062;11.722;2024-01-25T01:41:07;101548.13;;;7.61;100.00
47670;BME280;33408;52.062;11.722;2024-01-25T01:43:35;101535.25;;;7.58;100.00
47670;BME280;33408;52.062;11.722;2024-01-25T01:46:07;101564.50;;;7.60;100.00
47670;BME280;33408;52.062;11.722;2024-01-25T01:48:38;101556.78;;;7.63;100.00
47670;BME280;33408;52.062;11.722;2024-01-25T01:51:05;101549.84;;;7.59;100.00
47670;BME280;33408;52.062;11.722;2024-01-25T01:53:32;101557.53;;;7.53;100.00
47670;BME280;33408;52.062;11.722;2024-01-25T01:55:59;101552.34;;;7.48;100.00
47670;BME280;33408;52.062;11.722;2024-01-25T01:58:27;101543.75;;;7.46;100.00
47670;BME280;33408;52.062;11.722;2024-01-25T02:00:55;101531.72;;;7.45;100.00
47670;BME280;33408;52.062;11.722;2024-01-25T02:03:22;101531.63;;;7.35;100.00
47670;BME280;33408;52.062;11.722;2024-01-25T02:05:50;101530.00;;;7.46;100.00
47670;BME280;33408;52.062;11.722;2024-01-25T02:08:16;101535.00;;;7.27;100.00
47670;BME280;33408;52.062;11.722;2024-01-25T02:10:43;101533.25;;;7.23;100.00
47670;BME280;33408;52.062;11.722;2024-01-25T02:13:10;101541.78;;;7.16;100.00
47670;BME280;33408;52.062;11.722;2024-01-25T02:15:37;101529.75;;;7.17;100.00
47670;BME280;33408;52.062;11.722;2024-01-25T02:18:04;101547.63;;;6.98;100.00
47670;BME280;33408;52.062;11.722;2024-01-25T02:20:31;101541.63;;;6.99;100.00
47670;BME280;33408;52.062;11.722;2024-01-25T02:22:59;101539.84;;;6.93;100.00
47670;BME280;33408;52.062;11.722;2024-01-25T02:25:25;101554.50;;;6.98;100.00
47670;BME280;33408;52.062;11.722;2024-01-25T02:27:52;101579.44;;;7.02;100.00
47670;BME280;33408;52.062;11.722;2024-01-25T02:30:19;101581.19;;;7.03;100.00
47670;BME280;33408;52.062;11.722;2024-01-25T02:32:45;101582.97;;;7.08;100.00
47670;BME280;33408;52.062;11.722;2024-01-25T02:35:13;101592.38;;;7.05;100.00
47670;BME280;33408;52.062;11.722;2024-01-25T02:37:40;101603.63;;;7.13;100.00
47670;BME280;33408;52.062;11.722;2024-01-25T02:40:09;101612.31;;;7.20;100.00
47670;BME280;33408;52.062;11.722;2024-01-25T02:42:36;101614.06;;;7.25;100.00
47670;BME280;33408;52.062;11.722;2024-01-25T02:45:03;101621.75;;;7.21;100.00
47670;BME280;33408;52.062;11.722;2024-01-25T02:47:29;101619.19;;;7.21;100.00
47670;BME280;33408;52.062;11.722;2024-01-25T02:49:56;101620.84;;;7.14;100.00
47670;BME280;33408;52.062;11.722;2024-01-25T02:52:22;101618.34;;;7.23;100.00
47670;BME280;33408;52.062;11.722;2024-01-25T02:54:49;101632.06;;;7.21;100.00
47670;BME280;33408;52.062;11.722;2024-01-25T02:57:17;101620.81;;;7.11;100.00
47670;BME280;33408;52.062;11.722;2024-01-25T02:59:43;101620.00;;;7.15;100.00
47670;BME280;33408;52.062;11.722;2024-01-25T03:02:10;101631.94;;;7.07;100.00
47670;BME280;33408;52.062;11.722;2024-01-25T03:04:36;101631.03;;;7.05;100.00
47670;BME280;33408;52.062;11.722;2024-01-25T03:07:03;101638.78;;;7.05;100.00
47670;BME280;33408;52.062;11.722;2024-01-25T03:09:30;101634.53;;;7.08;100.00
47670;BME280;33408;52.062;11.722;2024-01-25T03:11:57;101637.13;;;7.10;100.00
47670;BME280;33408;52.062;11.722;2024-01-25T03:14:25;101648.41;;;7.23;100.00
47670;BME280;33408;52.062;11.722;2024-01-25T03:16:51;101644.03;;;7.14;100.00
47670;BME280;33408;52.062;11.722;2024-01-25T03:19:18;101661.25;;;7.14;100.00
47670;BME280;33408;52.062;11.722;2024-01-25T03:21:44;101648.38;;;7.15;100.00
47670;BME280;33408;52.062;11.722;2024-01-25T03:24:11;101644.03;;;7.14;100.00
47670;BME280;33408;52.062;11.722;2024-01-25T03:26:39;101641.44;;;7.11;100.00
47670;BME280;33408;52.062;11.722;2024-01-25T03:29:05;101635.47;;;7.15;100.00
47670;BME280;33408;52.062;11.722;2024-01-25T03:31:33;101647.44;;;7.11;100.00
47670;BME280;33408;52.062;11.722;2024-01-25T03:34:01;101640.63;;;7.15;100.00
47670;BME280;33408;52.062;11.722;2024-01-25T03:36:27;101638.94;;;7.19;100.00
47670;BME280;33408;52.062;11.722;2024-01-25T03:38:54;101631.97;;;7.11;100.00
47670;BME280;33408;52.062;11.722;2024-01-25T03:41:21;101631.97;;;7.10;100.00
47670;BME280;33408;52.062;11.722;2024-01-25T03:43:48;101624.25;;;7.13;100.00
47670;BME280;33408;52.062;11.722;2024-01-25T03:46:15;101620.75;;;7.06;100.00
47670;BME280;33408;52.062;11.722;2024-01-25T03:48:43;101626.72;;;6.99;100.00
47670;BME280;33408;52.062;11.722;2024-01-25T03:51:09;101635.47;;;7.15;100.00
47670;BME280;33408;52.062;11.722;2024-01-25T03:53:36;101645.72;;;7.10;100.00
47670;BME280;33408;52.062;11.722;2024-01-25T03:56:03;101658.59;;;7.07;100.00
47670;BME280;33408;52.062;11.722;2024-01-25T03:58:30;101661.28;;;7.17;100.00
47670;BME280;33408;52.062;11.722;2024-01-25T04:00:57;101657.75;;;7.11;100.00
47670;BME280;33408;52.062;11.722;2024-01-25T04:03:23;101658.72;;;7.18;100.00
47670;BME280;33408;52.062;11.722;2024-01-25T04:05:51;101659.50;;;7.14;100.00
47670;BME280;33408;52.062;11.722;2024-01-25T04:08:18;101668.94;;;7.12;100.00
47670;BME280;33408;52.062;11.722;2024-01-25T04:10:44;101678.41;;;7.10;100.00
47670;BME280;33408;52.062;11.722;2024-01-25T04:13:11;101679.31;;;7.15;100.00
47670;BME280;33408;52.062;11.722;2024-01-25T04:15:37;101675.03;;;7.19;100.00
47670;BME280;33408;52.062;11.722;2024-01-25T04:18:04;101658.69;;;7.17;100.00
47670;BME280;33408;52.062;11.722;2024-01-25T04:20:31;101679.13;;;7.01;100.00
47670;BME280;33408;52.062;11.722;2024-01-25T04:23:00;101672.28;;;7.03;100.00
47670;BME280;33408;52.062;11.722;2024-01-25T04:25:27;101689.56;;;7.10;100.00
47670;BME280;33408;52.062;11.722;2024-01-25T04:27:54;101692.13;;;7.10;100.00
47670;BME280;33408;52.062;11.722;2024-01-25T04:30:20;101687.81;;;7.09;100.00
47670;BME280;33408;52.062;11.722;2024-01-25T04:32:47;101687.94;;;7.19;100.00
47670;BME280;33408;52.062;11.722;2024-01-25T04:35:13;101692.22;;;7.18;100.00
47670;BME280;33408;52.062;11.722;2024-01-25T04:37:40;101686.13;;;7.11;100.00
47670;BME280;33408;52.062;11.722;2024-01-25T04:40:09;101699.03;;;7.15;100.00
47670;BME280;33408;52.062;11.722;2024-01-25T04:42:37;101702.50;;;7.14;100.00
47670;BME280;33408;52.062;11.722;2024-01-25T04:45:04;101704.97;;;7.04;100.00
47670;BME280;33408;52.062;11.722;2024-01-25T04:47:31;101721.41;;;7.16;100.00
47670;BME280;33408;52.062;11.722;2024-01-25T04:49:58;101717.06;;;7.11;100.00
47670;BME280;33408;52.062;11.722;2024-01-25T04:52:25;101724.81;;;7.13;100.00
47670;BME280;33408;52.062;11.722;2024-01-25T04:54:51;101730.88;;;7.15;100.00
47670;BME280;33408;52.062;11.722;2024-01-25T04:57:19;101741.16;;;7.12;100.00
47670;BME280;33408;52.062;11.722;2024-01-25T04:59:46;101749.69;;;7.09;100.00
47670;BME280;33408;52.062;11.722;2024-01-25T05:02:12;101735.97;;;7.10;100.00
47670;BME280;33408;52.062;11.722;2024-01-25T05:04:40;101730.88;;;7.15;100.00
47670;BME280;33408;52.062;11.722;2024-01-25T05:07:06;101742.84;;;7.13;100.00
47670;BME280;33408;52.062;11.722;2024-01-25T05:09:33;101756.56;;;7.09;100.00
47670;BME280;33408;52.062;11.722;2024-01-25T05:11:59;101752.31;;;7.12;100.00
47670;BME280;33408;52.062;11.722;2024-01-25T05:14:28;101770.38;;;7.12;100.00
47670;BME280;33408;52.062;11.722;2024-01-25T05:16:55;101785.81;;;7.09;100.00
47670;BME280;33408;52.062;11.722;2024-01-25T05:19:21;101784.16;;;7.16;100.00
47670;BME280;33408;52.062;11.722;2024-01-25T05:21:48;101790.16;;;7.14;100.00
47670;BME280;33408;52.062;11.722;2024-01-25T05:24:15;101790.16;;;7.14;100.00
47670;BME280;33408;52.062;11.722;2024-01-25T05:26:41;101791.88;;;7.15;100.00
47670;BME280;33408;52.062;11.722;2024-01-25T05:29:08;101791.81;;;7.07;100.00
47670;BME280;33408;52.062;11.722;2024-01-25T05:31:36;101795.22;;;7.06;100.00
47670;BME280;33408;52.062;11.722;2024-01-25T05:34:03;101800.44;;;7.12;100.00
47670;BME280;33408;52.062;11.722;2024-01-25T05:36:29;101791.81;;;7.08;100.00
47670;BME280;33408;52.062;11.722;2024-01-25T05:38:56;101793.50;;;7.08;100.00
47670;BME280;33408;52.062;11.722;2024-01-25T05:41:22;101796.97;;;7.08;100.00
47670;BME280;33408;52.062;11.722;2024-01-25T05:43:49;101799.50;;;7.04;100.00
47670;BME280;33408;52.062;11.722;2024-01-25T05:46:15;101788.28;;;7.03;100.00
47670;BME280;33408;52.062;11.722;2024-01-25T05:48:43;101799.41;;;6.98;100.00
47670;BME280;33408;52.062;11.722;2024-01-25T05:51:10;101795.16;;;7.01;100.00
47670;BME280;33408;52.062;11.722;2024-01-25T05:53:36;101802.78;;;6.93;100.00
47670;BME280;33408;52.062;11.722;2024-01-25T05:56:03;101806.16;;;6.89;100.00
47670;BME280;33408;52.062;11.722;2024-01-25T05:58:30;101812.19;;;6.91;100.00
47670;BME280;33408;52.062;11.722;2024-01-25T06:00:57;101814.72;;;6.87;100.00
47670;BME280;33408;52.062;11.722;2024-01-25T06:03:25;101816.53;;;6.92;100.00
47670;BME280;33408;52.062;11.722;2024-01-25T06:05:53;101824.19;;;6.88;100.00
47670;BME280;33408;52.062;11.722;2024-01-25T06:08:20;101830.19;;;6.88;100.00
47670;BME280;33408;52.062;11.722;2024-01-25T06:10:47;101839.63;;;6.86;100.00
47670;BME280;33408;52.062;11.722;2024-01-25T06:13:13;101843.94;;;6.89;100.00
47670;BME280;33408;52.062;11.722;2024-01-25T06:15:40;101858.59;;;6.91;100.00
47670;BME280;33408;52.062;11.722;2024-01-25T06:18:06;101848.25;;;6.90;100.00
47670;BME280;33408;52.062;11.722;2024-01-25T06:20:33;101858.59;;;6.91;100.00
47670;BME280;33408;52.062;11.722;2024-01-25T06:23:01;101871.38;;;6.84;100.00
47670;BME280;33408;52.062;11.722;2024-01-25T06:25:28;101863.66;;;6.85;100.00
47670;BME280;33408;52.062;11.722;2024-01-25T06:27:56;101854.97;;;6.79;100.00
47670;BME280;33408;52.062;11.722;2024-01-25T06:30:23;101861.00;;;6.81;100.00
47670;BME280;33408;52.062;11.722;2024-01-25T06:32:50;101859.28;;;6.80;100.00
47670;BME280;33408;52.062;11.722;2024-01-25T06:35:17;101867.91;;;6.82;100.00
47670;BME280;33408;52.062;11.722;2024-01-25T06:37:43;101872.16;;;6.78;100.00
47670;BME280;33408;52.062;11.722;2024-01-25T06:40:12;101877.34;;;6.80;100.00
47670;BME280;33408;52.062;11.722;2024-01-25T06:42:38;101890.19;;;6.78;100.00
47670;BME280;33408;52.062;11.722;2024-01-25T06:45:05;101895.38;;;6.80;100.00
47670;BME280;33408;52.062;11.722;2024-01-25T06:47:32;101871.25;;;6.78;100.00
47670;BME280;33408;52.062;11.722;2024-01-25T06:50:01;101879.78;;;6.72;100.00
47670;BME280;33408;52.062;11.722;2024-01-25T06:52:28;101885.00;;;6.75;100.00
47670;BME280;33408;52.062;11.722;2024-01-25T06:54:55;101884.09;;;6.73;100.00
47670;BME280;33408;52.062;11.722;2024-01-25T06:57:23;101879.00;;;6.78;100.00
47670;BME280;33408;52.062;11.722;2024-01-25T06:59:49;101881.50;;;6.71;100.00
47670;BME280;33408;52.062;11.722;2024-01-25T07:02:16;101894.41;;;6.73;100.00
47670;BME280;33408;52.062;11.722;2024-01-25T07:04:42;101888.38;;;6.72;100.00
47670;BME280;33408;52.062;11.722;2024-01-25T07:07:09;101889.25;;;6.73;100.00
47670;BME280;33408;52.062;11.722;2024-01-25T07:09:36;101883.25;;;6.74;100.00
47670;BME280;33408;52.062;11.722;2024-01-25T07:12:02;101899.50;;;6.70;100.00
47670;BME280;33408;52.062;11.722;2024-01-25T07:14:30;101895.19;;;6.69;100.00
47670;BME280;33408;52.062;11.722;2024-01-25T07:16:57;101894.34;;;6.68;100.00
47670;BME280;33408;52.062;11.722;2024-01-25T07:19:24;101893.44;;;6.68;100.00
47670;BME280;33408;52.062;11.722;2024-01-25T07:21:50;101907.19;;;6.67;100.00
47670;BME280;33408;52.062;11.722;2024-01-25T07:24:17;101888.25;;;6.65;100.00
47670;BME280;33408;52.062;11.722;2024-01-25T07:26:43;101896.88;;;6.67;100.00
47670;BME280;33408;52.062;11.722;2024-01-25T07:29:10;101901.03;;;6.59;100.00
47670;BME280;33408;52.062;11.722;2024-01-25T07:31:38;101900.19;;;6.60;100.00
47670;BME280;33408;52.062;11.722;2024-01-25T07:34:04;101900.91;;;6.51;100.00
47670;BME280;33408;52.062;11.722;2024-01-25T07:36:31;101908.72;;;6.55;100.00
47670;BME280;33408;52.062;11.722;2024-01-25T07:38:57;101916.41;;;6.52;100.00
47670;BME280;33408;52.062;11.722;2024-01-25T07:41:24;101931.78;;;6.49;100.00
47670;BME280;33408;52.062;11.722;2024-01-25T07:43:51;101935.25;;;6.51;100.00
47670;BME280;33408;52.062;11.722;2024-01-25T07:46:20;101939.63;;;6.55;100.00
47670;BME280;33408;52.062;11.722;2024-01-25T07:48:48;101933.56;;;6.53;100.00
47670;BME280;33408;52.062;11.722;2024-01-25T07:51:15;101956.72;;;6.52;100.00
47670;BME280;33408;52.062;11.722;2024-01-25T07:53:42;101937.84;;;6.51;100.00
47670;BME280;33408;52.062;11.722;2024-01-25T07:56:08;101944.63;;;6.46;100.00
47670;BME280;33408;52.062;11.722;2024-01-25T07:58:36;101953.19;;;6.47;100.00
47670;BME280;33408;52.062;11.722;2024-01-25T08:01:03;101948.13;;;6.51;100.00
47670;BME280;33408;52.062;11.722;2024-01-25T08:03:31;101946.31;;;6.44;100.00
47670;BME280;33408;52.062;11.722;2024-01-25T08:06:00;101952.41;;;6.49;100.00
47670;BME280;33408;52.062;11.722;2024-01-25T08:08:27;101959.31;;;6.53;100.00
47670;BME280;33408;52.062;11.722;2024-01-25T08:10:54;101948.19;;;6.54;100.00
47670;BME280;33408;52.062;11.722;2024-01-25T08:13:21;101948.28;;;6.59;100.00
47670;BME280;33408;52.062;11.722;2024-01-25T08:15:48;101956.03;;;6.61;100.00
47670;BME280;33408;52.062;11.722;2024-01-25T08:18:15;101953.47;;;6.61;100.00
47670;BME280;33408;52.062;11.722;2024-01-25T08:20:44;101959.50;;;6.63;100.00
47670;BME280;33408;52.062;11.722;2024-01-25T08:23:12;101960.41;;;6.66;100.00
47670;BME280;33408;52.062;11.722;2024-01-25T08:25:39;101953.56;;;6.67;100.00
47670;BME280;33408;52.062;11.722;2024-01-25T08:28:05;101961.22;;;6.62;100.00
47670;BME280;33408;52.062;11.722;2024-01-25T08:30:32;101962.88;;;6.59;100.00
47670;BME280;33408;52.062;11.722;2024-01-25T08:32:59;101966.28;;;6.57;100.00
47670;BME280;33408;52.062;11.722;2024-01-25T08:35:25;101970.59;;;6.59;100.00
47670;BME280;33408;52.062;11.722;2024-01-25T08:37:52;101971.44;;;6.57;100.00
47670;BME280;33408;52.062;11.722;2024-01-25T08:40:20;101975.72;;;6.57;100.00
47670;BME280;33408;52.062;11.722;2024-01-25T08:42:46;101977.56;;;6.64;100.00
47670;BME280;33408;52.062;11.722;2024-01-25T08:45:13;101989.59;;;6.64;100.00
47670;BME280;33408;52.062;11.722;2024-01-25T08:47:40;101983.63;;;6.68;100.00
47670;BME280;33408;52.062;11.722;2024-01-25T08:50:07;101993.94;;;6.68;100.00
47670;BME280;33408;52.062;11.722;2024-01-25T08:52:36;101996.59;;;6.72;100.00
47670;BME280;33408;52.062;11.722;2024-01-25T08:55:03;102012.09;;;6.74;100.00
47670;BME280;33408;52.062;11.722;2024-01-25T08:57:31;102018.19;;;6.79;100.00
47670;BME280;33408;52.062;11.722;2024-01-25T08:59:58;102015.66;;;6.82;100.00
47670;BME280;33408;52.062;11.722;2024-01-25T09:02:26;102032.97;;;6.88;100.00
47670;BME280;33408;52.062;11.722;2024-01-25T09:04:54;102015.03;;;6.94;100.00
47670;BME280;33408;52.062;11.722;2024-01-25T09:07:21;102027.81;;;6.88;100.00
47670;BME280;33408;52.062;11.722;2024-01-25T09:09:48;102023.63;;;6.94;100.00
47670;BME280;33408;52.062;11.722;2024-01-25T09:12:14;102025.34;;;6.94;100.00
47670;BME280;33408;52.062;11.722;2024-01-25T09:14:43;102021.91;;;6.95;100.00
47670;BME280;33408;52.062;11.722;2024-01-25T09:17:09;102033.13;;;6.97;100.00
47670;BME280;33408;52.062;11.722;2024-01-25T09:19:36;102017.66;;;6.96;100.00
47670;BME280;33408;52.062;11.722;2024-01-25T09:22:03;102039.13;;;6.96;100.00
47670;BME280;33408;52.062;11.722;2024-01-25T09:24:30;102052.03;;;6.96;100.00
47670;BME280;33408;52.062;11.722;2024-01-25T09:26:58;102048.66;;;7.02;100.00
47670;BME280;33408;52.062;11.722;2024-01-25T09:29:25;102058.94;;;7.00;100.00
47670;BME280;33408;52.062;11.722;2024-01-25T09:31:53;102061.59;;;7.05;100.00
47670;BME280;33408;52.062;11.722;2024-01-25T09:34:19;102054.75;;;7.05;100.00
47670;BME280;33408;52.062;11.722;2024-01-25T09:36:46;102058.13;;;7.01;100.00
47670;BME280;33408;52.062;11.722;2024-01-25T09:39:13;102058.16;;;7.03;100.00
47670;BME280;33408;52.062;11.722;2024-01-25T09:41:40;102065.06;;;7.05;100.00
47670;BME280;33408;52.062;11.722;2024-01-25T09:44:08;102071.06;;;7.04;100.00
47670;BME280;33408;52.062;11.722;2024-01-25T09:46:34;102065.00;;;7.01;100.00
47670;BME280;33408;52.062;11.722;2024-01-25T09:49:03;102081.34;;;7.03;100.00
47670;BME280;33408;52.062;11.722;2024-01-25T09:51:37;102083.94;;;7.03;100.00
47670;BME280;33408;52.062;11.722;2024-01-25T09:54:04;102084.75;;;7.02;100.00
47670;BME280;33408;52.062;11.722;2024-01-25T09:56:32;102094.34;;;7.09;100.00
47670;BME280;33408;52.062;11.722;2024-01-25T09:58:59;102096.19;;;7.16;100.00
47670;BME280;33408;52.062;11.722;2024-01-25T10:01:27;102106.50;;;7.16;100.00
47670;BME280;33408;52.062;11.722;2024-01-25T10:03:54;102103.94;;;7.18;100.00
47670;BME280;33408;52.062;11.722;2024-01-25T10:06:23;102107.41;;;7.17;100.00
47670;BME280;33408;52.062;11.722;2024-01-25T10:08:50;102104.06;;;7.24;100.00
47670;BME280;33408;52.062;11.722;2024-01-25T10:11:16;102112.63;;;7.21;100.00
47670;BME280;33408;52.062;11.722;2024-01-25T10:13:43;102110.84;;;7.19;100.00
47670;BME280;33408;52.062;11.722;2024-01-25T10:16:11;102122.94;;;7.21;100.00
47670;BME280;33408;52.062;11.722;2024-01-25T10:18:40;102110.03;;;7.20;100.00
47670;BME280;33408;52.062;11.722;2024-01-25T10:21:06;102115.22;;;7.23;100.00
47670;BME280;33408;52.062;11.722;2024-01-25T10:23:34;102115.25;;;7.24;100.00
47670;BME280;33408;52.062;11.722;2024-01-25T10:26:01;102103.09;;;7.17;100.00
47670;BME280;33408;52.062;11.722;2024-01-25T10:28:28;102103.22;;;7.23;100.00
47670;BME280;33408;52.062;11.722;2024-01-25T10:30:57;102110.97;;;7.25;100.00
47670;BME280;33408;52.062;11.722;2024-01-25T10:33:24;102123.00;;;7.26;100.00
47670;BME280;33408;52.062;11.722;2024-01-25T10:35:53;102118.22;;;7.46;100.00
47670;BME280;33408;52.062;11.722;2024-01-25T10:38:25;102110.34;;;7.40;100.00
47670;BME280;33408;52.062;11.722;2024-01-25T10:40:53;102118.97;;;7.42;100.00
47670;BME280;33408;52.062;11.722;2024-01-25T10:43:20;102106.06;;;7.40;100.00
47670;BME280;33408;52.062;11.722;2024-01-25T10:45:47;102123.22;;;7.38;100.00
47670;BME280;33408;52.062;11.722;2024-01-25T10:48:15;102136.31;;;7.49;100.00
47670;BME280;33408;52.062;11.722;2024-01-25T10:50:42;102117.31;;;7.44;100.00
47670;BME280;33408;52.062;11.722;2024-01-25T10:53:10;102102.84;;;7.52;100.00
47670;BME280;33408;52.062;11.722;2024-01-25T10:55:37;102124.06;;;7.37;100.00
47670;BME280;33408;52.062;11.722;2024-01-25T10:58:07;102114.72;;;7.42;100.00
47670;BME280;33408;52.062;11.722;2024-01-25T11:00:35;102101.69;;;7.35;100.00
47670;BME280;33408;52.062;11.722;2024-01-25T11:03:02;102112.00;;;7.35;100.00
47670;BME280;33408;52.062;11.722;2024-01-25T11:05:31;102112.06;;;7.38;100.00
47670;BME280;33408;52.062;11.722;2024-01-25T11:07:58;102113.91;;;7.46;100.00
47670;BME280;33408;52.062;11.722;2024-01-25T11:10:25;102119.88;;;7.42;100.00
47670;BME280;33408;52.062;11.722;2024-01-25T11:12:56;102109.69;;;7.52;100.00
47670;BME280;33408;52.062;11.722;2024-01-25T11:15:30;102109.53;;;7.41;100.00
47670;BME280;33408;52.062;11.722;2024-01-25T11:17:57;102114.72;;;7.42;100.00
47670;BME280;33408;52.062;11.722;2024-01-25T11:20:27;102114.00;;;7.53;100.00
47670;BME280;33408;52.062;11.722;2024-01-25T11:22:57;102112.41;;;7.59;100.00
47670;BME280;33408;52.062;11.722;2024-01-25T11:25:26;102121.69;;;7.49;100.00
47670;BME280;33408;52.062;11.722;2024-01-25T11:27:53;102109.03;;;7.63;100.00
47670;BME280;33408;52.062;11.722;2024-01-25T11:30:20;102127.09;;;7.63;100.00
47670;BME280;33408;52.062;11.722;2024-01-25T11:32:48;102110.69;;;7.58;100.00
47670;BME280;33408;52.062;11.722;2024-01-25T11:35:17;102117.59;;;7.61;100.00
47670;BME280;33408;52.062;11.722;2024-01-25T11:37:44;102113.31;;;7.63;100.00
47670;BME280;33408;52.062;11.722;2024-01-25T11:40:11;102107.34;;;7.65;100.00
47670;BME280;33408;52.062;11.722;2024-01-25T11:42:38;102114.06;;;7.56;100.00
47670;BME280;33408;52.062;11.722;2024-01-25T11:45:06;102114.09;;;7.57;100.00
47670;BME280;33408;52.062;11.722;2024-01-25T11:47:34;102121.75;;;7.53;100.00
47670;BME280;33408;52.062;11.722;2024-01-25T11:50:02;102125.28;;;7.58;100.00
47670;BME280;33408;52.062;11.722;2024-01-25T11:52:28;102121.78;;;7.54;100.00
47670;BME280;33408;52.062;11.722;2024-01-25T11:54:57;102130.28;;;7.48;100.00
47670;BME280;33408;52.062;11.722;2024-01-25T11:57:23;102138.78;;;7.43;100.00
47670;BME280;33408;52.062;11.722;2024-01-25T11:59:50;102121.47;;;7.37;100.00
47670;BME280;33408;52.062;11.722;2024-01-25T12:02:17;102133.63;;;7.43;100.00
47670;BME280;33408;52.062;11.722;2024-01-25T12:04:46;102126.72;;;7.42;100.00
47670;BME280;33408;52.062;11.722;2024-01-25T12:07:14;102116.97;;;7.24;100.00
47670;BME280;33408;52.062;11.722;2024-01-25T12:09:40;102127.34;;;7.27;100.00
47670;BME280;33408;52.062;11.722;2024-01-25T12:12:09;102125.63;;;7.27;100.00
47670;BME280;33408;52.062;11.722;2024-01-25T12:14:36;102133.34;;;7.27;100.00
47670;BME280;33408;52.062;11.722;2024-01-25T12:17:03;102128.16;;;7.26;100.00
47670;BME280;33408;52.062;11.722;2024-01-25T12:19:30;102124.03;;;7.36;100.00
47670;BME280;33408;52.062;11.722;2024-01-25T12:21:56;102141.25;;;7.37;100.00
47670;BME280;33408;52.062;11.722;2024-01-25T12:24:24;102138.00;;;7.45;100.00
47670;BME280;33408;52.062;11.722;2024-01-25T12:26:51;102133.91;;;7.58;100.00
47670;BME280;33408;52.062;11.722;2024-01-25T12:29:18;102134.53;;;7.46;100.00
47670;BME280;33408;52.062;11.722;2024-01-25T12:31:44;102139.84;;;7.54;100.00
47670;BME280;33408;52.062;11.722;2024-01-25T12:34:13;102125.09;;;7.47;100.00
47670;BME280;33408;52.062;11.722;2024-01-25T12:36:40;102132.97;;;7.55;100.00
47670;BME280;33408;52.062;11.722;2024-01-25T12:39:08;102143.13;;;7.44;100.00